Stations météo

réclame
Mon MeteoGroup
Mumbles, Grande-Bretagne (3609): Température de l'air & dewpoint: 21.02.2020 01:00:00 - 27.02.2020 01:00:00 (GMT)Mumbles, Grande-Bretagne (3609): Vitesse du vent & gusts: 21.02.2020 01:00:00 - 27.02.2020 01:00:00 (GMT)Mumbles, Grande-Bretagne (3609): Direction du vent: 21.02.2020 01:00:00 - 27.02.2020 01:00:00 (GMT)Mumbles, Grande-Bretagne (3609): reduced air pressure: 21.02.2020 01:00:00 - 27.02.2020 01:00:00 (GMT)Mumbles, Grande-Bretagne (3609): Quantités de précipitations: 21.02.2020 01:00:00 - 27.02.2020 01:00:00 (GMT)
Date & Time tt [°C] td [°C] ff [km/h] ff [knt] fx [km/h] fx [knt] dd ppp [hPa] rr [mm]
27.02.2020 01:00:00 - - - - - - - - -
27.02.2020 00:00:00 4,9 2,4 22 12 50 27 S 1003,1 0,4
26.02.2020 23:00:00 6,6 1,2 35 19 - - SW 1004,2 0,0
26.02.2020 22:00:00 6,6 3,1 34 18 - - SW 1005,7 0,0
26.02.2020 21:00:00 5,5 2,7 18 10 57 31 SW 1007,0 0,0
26.02.2020 20:00:00 6,7 1,0 34 18 - - WSW 1007,9 0,0
26.02.2020 19:00:00 6,4 0,5 34 18 - - WSW 1009,1 0,0
26.02.2020 18:00:00 5,9 -0,1 22 12 - - W 1009,2 0,0
26.02.2020 17:00:00 6,5 -0,4 31 17 - - W 1009,5 0,0
26.02.2020 16:00:00 7,1 0,9 34 18 52 28 WSW 1009,8 0,0
26.02.2020 15:00:00 7,5 -0,4 29 16 48 26 W 1010,0 0,0
26.02.2020 14:00:00 7,8 0,3 26 14 48 26 W 1010,2 0,0
26.02.2020 13:00:00 7,5 1,0 24 13 - - W 1010,3 0,0
26.02.2020 12:00:00 7,5 0,6 28 15 52 28 W 1009,9 0,0
26.02.2020 11:00:00 6,6 0,3 37 20 55 30 WNW 1009,1 0,0
26.02.2020 10:00:00 6,2 1,4 29 16 48 26 WNW 1008,7 0,0
26.02.2020 09:00:00 5,4 0,8 28 15 46 25 W 1007,5 0,0
26.02.2020 08:00:00 4,6 1,0 24 13 - - W 1007,0 0,0
26.02.2020 07:00:00 4,2 0,9 26 14 59 32 W 1005,7 0,0
26.02.2020 06:00:00 4,2 0,7 28 15 48 26 W 1005,2 0,0
26.02.2020 05:00:00 4,1 0,6 29 16 52 28 W 1004,2 0,0
26.02.2020 04:00:00 3,4 0,1 26 14 50 27 W 1003,3 0,2
26.02.2020 03:00:00 3,2 0,3 31 17 55 30 WNW 1003,0 0,0
26.02.2020 02:00:00 3,3 0,2 29 16 55 30 WNW 1002,4 0,0
26.02.2020 01:00:00 3,0 -0,1 34 18 50 27 WNW 1001,3 0,4
26.02.2020 00:00:00 3,1 0,3 37 20 57 31 WNW 1000,7 0,2
25.02.2020 23:00:00 3,7 -0,8 22 12 48 26 W 1000,5 0,0
25.02.2020 22:00:00 3,8 -0,6 28 15 - - W 1000,3 0,0
25.02.2020 21:00:00 4,1 -0,4 28 15 50 27 W 999,8 0,0
25.02.2020 20:00:00 4,3 -0,6 35 19 61 33 WNW 999,8 0,0
25.02.2020 19:00:00 4,2 1,1 26 14 46 25 W 999,6 0,0
25.02.2020 18:00:00 3,7 0,1 35 19 54 29 W 999,0 0,2
25.02.2020 17:00:00 4,4 1,1 29 16 67 36 W 999,0 0,0
25.02.2020 16:00:00 6,1 0,2 41 22 67 36 W 998,5 0,0
25.02.2020 15:00:00 6,1 2,8 31 17 55 30 WSW 998,3 2,4
25.02.2020 14:00:00 5,4 3,6 24 13 - - WSW 999,3 0,2
25.02.2020 13:00:00 4,7 2,9 42 23 83 45 WSW 1000,8 0,8
25.02.2020 12:00:00 6,9 1,0 39 21 54 29 W 1001,2 0,0
25.02.2020 11:00:00 6,8 3,2 42 23 54 29 WSW 1001,4 0,0
25.02.2020 10:00:00 5,3 3,2 41 22 61 33 W 1002,3 3,0
25.02.2020 09:00:00 6,8 2,1 21 11 - - W 1002,9 0,0
25.02.2020 08:00:00 6,0 1,4 16 9 - - W 1003,4 0,0
25.02.2020 07:00:00 5,8 1,5 21 11 - - W 1003,7 0,2
25.02.2020 06:00:00 6,5 3,1 34 18 63 34 W 1004,1 0,0
25.02.2020 05:00:00 6,0 3,4 29 16 50 27 W 1004,4 0,2
25.02.2020 04:00:00 6,8 3,2 24 13 - - W 1005,3 0,0
25.02.2020 03:00:00 6,8 3,6 39 21 67 36 W 1006,0 0,2
25.02.2020 02:00:00 6,0 2,4 21 11 - - W 1006,9 0,0
25.02.2020 01:00:00 5,8 3,0 16 9 - - W 1007,7 0,0
25.02.2020 00:00:00 6,3 2,4 21 11 57 31 W 1007,9 0,0
24.02.2020 23:00:00 6,9 2,7 18 10 - - W 1008,0 0,0
24.02.2020 22:00:00 7,3 3,9 21 11 - - W 1008,2 0,0
24.02.2020 21:00:00 7,8 4,4 29 16 - - W 1008,4 0,0
24.02.2020 20:00:00 8,3 5,6 29 16 - - W 1008,4 0,0
24.02.2020 19:00:00 8,1 5,5 26 14 - - W 1008,4 0,0
24.02.2020 18:00:00 8,7 5,1 26 14 - - W 1007,9 0,0
24.02.2020 17:00:00 9,1 6,9 26 14 65 35 W 1007,4 0,0
24.02.2020 16:00:00 9,3 7,5 44 24 67 36 WSW 1006,5 0,0
24.02.2020 15:00:00 9,5 8,1 50 27 72 39 WSW 1005,8 0,0
24.02.2020 14:00:00 9,5 9,0 52 28 70 38 WSW 1005,5 0,0
24.02.2020 13:00:00 9,5 9,1 57 31 74 40 SW 1005,8 0,0
24.02.2020 12:00:00 9,6 9,0 65 35 80 43 SW 1006,2 0,0
24.02.2020 11:00:00 9,4 9,0 63 34 76 41 SW 1006,6 1,2
24.02.2020 10:00:00 9,3 8,9 63 34 83 45 SW 1007,2 2,2
24.02.2020 09:00:00 9,3 8,8 70 38 87 47 SW 1007,3 2,0
24.02.2020 08:00:00 9,1 8,6 67 36 81 44 SW 1008,0 2,8
24.02.2020 07:00:00 9,1 8,5 70 38 85 46 SW 1009,1 0,2
24.02.2020 06:00:00 9,2 8,6 67 36 83 45 SW 1010,3 0,0
24.02.2020 05:00:00 9,2 8,8 61 33 72 39 SW 1012,1 0,2
24.02.2020 04:00:00 9,2 8,8 50 27 57 31 SSW 1013,8 0,2
24.02.2020 03:00:00 7,4 7,0 35 19 54 29 SE 1016,2 1,6
24.02.2020 02:00:00 6,4 5,8 44 24 55 30 ESE 1017,7 0,6
24.02.2020 01:00:00 6,4 5,3 35 19 - - ESE 1019,9 0,2
24.02.2020 00:00:00 6,5 5,1 29 16 - - ESE 1021,2 0,0
23.02.2020 23:00:00 6,2 4,4 26 14 - - E 1022,4 0,0
23.02.2020 22:00:00 6,7 3,5 22 12 - - E 1023,4 0,0
23.02.2020 21:00:00 7,1 4,5 9 5 - - E 1024,1 0,0
23.02.2020 20:00:00 7,6 4,5 9 5 - - E 1024,2 0,0
23.02.2020 19:00:00 7,7 2,8 8 4 - - NE 1024,0 0,0
23.02.2020 18:00:00 8,2 1,8 5 3 - - NW 1023,7 0,0
23.02.2020 17:00:00 8,7 3,8 8 4 - - WNW 1023,0 0,0
23.02.2020 16:00:00 8,9 3,6 11 6 - - WNW 1022,3 0,0
23.02.2020 15:00:00 9,5 3,5 18 10 - - WNW 1021,5 0,0
23.02.2020 14:00:00 10,1 4,0 22 12 48 26 WNW 1020,2 0,0
23.02.2020 13:00:00 10,5 5,9 28 15 48 26 W 1019,1 0,0
23.02.2020 12:00:00 10,1 7,1 21 11 - - W 1018,8 0,0
23.02.2020 11:00:00 10,6 8,2 24 13 61 33 W 1017,4 0,0
23.02.2020 10:00:00 10,4 9,5 46 25 72 39 W 1015,5 0,2
23.02.2020 09:00:00 9,8 9,5 55 30 76 41 WSW 1014,0 0,0
23.02.2020 08:00:00 9,8 9,5 65 35 85 46 WSW 1012,4 0,0
23.02.2020 07:00:00 9,9 9,6 72 39 87 47 WSW 1011,6 0,2
23.02.2020 06:00:00 9,8 9,4 76 41 91 49 SW 1011,0 0,0
23.02.2020 05:00:00 9,7 9,3 78 42 91 49 SW 1010,7 0,0
23.02.2020 04:00:00 9,7 9,3 78 42 100 54 SW 1011,6 0,2
23.02.2020 03:00:00 9,8 9,4 80 43 96 52 SW 1011,8 0,0
23.02.2020 02:00:00 9,6 9,2 57 31 78 42 SW 1013,9 2,6
23.02.2020 01:00:00 8,3 7,8 31 17 57 31 SSW 1016,6 1,8
23.02.2020 00:00:00 8,4 7,8 44 24 57 31 SW 1019,0 1,6
22.02.2020 23:00:00 8,4 7,7 41 22 48 26 SSW 1020,3 0,8
22.02.2020 22:00:00 8,3 7,3 37 20 - - SW 1021,2 0,2
22.02.2020 21:00:00 8,4 6,7 28 15 46 25 WSW 1022,0 0,0
22.02.2020 20:00:00 8,4 6,3 37 20 50 27 WSW 1022,1 0,0
22.02.2020 19:00:00 8,6 6,2 39 21 50 27 WSW 1022,2 0,0
22.02.2020 18:00:00 8,7 6,6 42 23 54 29 WSW 1021,7 0,2
22.02.2020 17:00:00 8,6 6,4 50 27 67 36 WSW 1021,3 0,8
22.02.2020 16:00:00 9,0 6,8 50 27 61 33 WSW 1021,1 0,0
22.02.2020 15:00:00 9,0 7,1 46 25 55 30 WSW 1020,7 0,0
22.02.2020 14:00:00 8,9 7,2 44 24 55 30 WSW 1020,6 0,0
22.02.2020 13:00:00 9,2 7,0 46 25 67 36 WSW 1020,1 0,0
22.02.2020 12:00:00 9,6 7,3 48 26 55 30 WSW 1019,7 0,0
22.02.2020 11:00:00 9,5 7,3 42 23 52 28 WSW 1019,7 0,0
22.02.2020 10:00:00 9,2 7,2 35 19 46 25 WSW 1019,0 0,0
22.02.2020 09:00:00 9,2 7,5 41 22 61 33 WSW 1018,1 0,0
22.02.2020 08:00:00 9,3 7,7 46 25 67 36 WSW 1016,9 0,0
22.02.2020 07:00:00 9,3 8,5 59 32 81 44 WSW 1015,2 0,0
22.02.2020 06:00:00 9,2 8,8 70 38 91 49 SW 1014,3 0,2
22.02.2020 05:00:00 9,1 8,6 74 40 94 51 SW 1013,8 0,2
22.02.2020 04:00:00 8,9 8,4 76 41 93 50 SW 1013,7 0,8
22.02.2020 03:00:00 8,7 8,1 74 40 89 48 SW 1013,8 0,6
22.02.2020 02:00:00 8,7 7,7 70 38 85 46 SW 1014,7 0,0
22.02.2020 01:00:00 8,8 7,5 72 39 94 51 SW 1015,3 0,0
22.02.2020 00:00:00 9,2 7,0 76 41 91 49 SW 1016,2 0,0
21.02.2020 23:00:00 9,2 6,8 67 36 85 46 SW 1017,1 0,0
21.02.2020 22:00:00 9,1 6,9 59 32 72 39 SW 1018,3 0,0
21.02.2020 21:00:00 9,2 6,8 61 33 81 44 SW 1018,5 0,0
21.02.2020 20:00:00 9,2 6,5 55 30 68 37 SW 1019,3 0,0
21.02.2020 19:00:00 9,2 6,5 57 31 74 40 SW 1019,7 0,0
21.02.2020 18:00:00 9,1 6,5 57 31 74 40 SW 1020,0 0,0
21.02.2020 17:00:00 9,2 6,7 61 33 70 38 SW 1020,3 0,0
21.02.2020 16:00:00 9,0 7,0 57 31 68 37 SW 1020,8 0,0
21.02.2020 15:00:00 8,9 7,0 59 32 74 40 SW 1021,1 0,0
21.02.2020 14:00:00 8,9 6,7 61 33 74 40 SW 1021,1 0,0
21.02.2020 13:00:00 9,0 6,5 61 33 74 40 SW 1021,3 0,0
21.02.2020 12:00:00 8,8 6,2 59 32 70 38 SW 1022,2 0,0
21.02.2020 11:00:00 8,8 5,6 59 32 70 38 SW 1021,9 0,0
21.02.2020 10:00:00 8,6 5,6 59 32 78 42 SW 1022,2 0,0
21.02.2020 09:00:00 8,6 5,0 54 29 74 40 WSW 1022,4 0,0
21.02.2020 08:00:00 8,4 5,1 54 29 72 39 SW 1021,9 0,0
21.02.2020 07:00:00 8,2 5,1 57 31 68 37 SW 1021,4 0,0
21.02.2020 06:00:00 8,1 5,1 55 30 72 39 SW 1021,8 0,0
21.02.2020 05:00:00 7,6 4,4 44 24 70 38 WSW 1022,5 0,0
21.02.2020 04:00:00 8,0 4,8 46 25 61 33 WSW 1022,9 0,0
21.02.2020 03:00:00 7,7 4,3 50 27 61 33 WSW 1022,8 0,0
21.02.2020 02:00:00 7,7 4,2 48 26 61 33 WSW 1023,0 0,0
21.02.2020 01:00:00 7,7 4,2 42 23 52 28 WSW 1022,5 0,0

tt = Température de l'air
td = dewpoint
ff = Vitesse du vent
fx = gusts
dd = Direction du vent
ppp = reduced air pressure
rr = Quantités de précipitations

stations d'obs. à proximité